sensor_id;sensor_type;location;lat;lon;timestamp;P1;durP1;ratioP1;P2;durP2;ratioP2
18933;SDS011;9599;53.706;10.384;2023-06-05T00:01:37;25.53;;;23.83;;
18933;SDS011;9599;53.706;10.384;2023-06-05T00:04:05;25.90;;;24.23;;
18933;SDS011;9599;53.706;10.384;2023-06-05T00:06:33;26.63;;;24.80;;
18933;SDS011;9599;53.706;10.384;2023-06-05T00:09:03;26.73;;;25.03;;
18933;SDS011;9599;53.706;10.384;2023-06-05T00:11:31;26.83;;;24.83;;
18933;SDS011;9599;53.706;10.384;2023-06-05T00:14:00;28.00;;;26.17;;
18933;SDS011;9599;53.706;10.384;2023-06-05T00:16:29;26.70;;;24.93;;
18933;SDS011;9599;53.706;10.384;2023-06-05T00:18:57;28.20;;;26.57;;
18933;SDS011;9599;53.706;10.384;2023-06-05T00:21:26;27.63;;;25.90;;
18933;SDS011;9599;53.706;10.384;2023-06-05T00:23:54;28.33;;;26.43;;
18933;SDS011;9599;53.706;10.384;2023-06-05T00:26:22;27.30;;;25.50;;
18933;SDS011;9599;53.706;10.384;2023-06-05T00:28:51;28.93;;;27.13;;
18933;SDS011;9599;53.706;10.384;2023-06-05T00:31:20;28.33;;;26.43;;
18933;SDS011;9599;53.706;10.384;2023-06-05T00:33:49;28.23;;;26.07;;
18933;SDS011;9599;53.706;10.384;2023-06-05T00:36:18;27.53;;;25.73;;
18933;SDS011;9599;53.706;10.384;2023-06-05T00:38:48;28.73;;;26.73;;
18933;SDS011;9599;53.706;10.384;2023-06-05T00:41:16;28.77;;;26.83;;
18933;SDS011;9599;53.706;10.384;2023-06-05T00:43:44;27.33;;;25.53;;
18933;SDS011;9599;53.706;10.384;2023-06-05T00:46:13;26.97;;;25.27;;
18933;SDS011;9599;53.706;10.384;2023-06-05T00:48:43;26.53;;;24.67;;
18933;SDS011;9599;53.706;10.384;2023-06-05T00:51:13;26.73;;;25.00;;
18933;SDS011;9599;53.706;10.384;2023-06-05T00:53:42;25.63;;;23.87;;
18933;SDS011;9599;53.706;10.384;2023-06-05T00:56:13;25.40;;;23.80;;
18933;SDS011;9599;53.706;10.384;2023-06-05T00:58:43;25.23;;;23.43;;
18933;SDS011;9599;53.706;10.384;2023-06-05T01:01:11;26.07;;;24.27;;
18933;SDS011;9599;53.706;10.384;2023-06-05T01:03:43;25.87;;;24.17;;
18933;SDS011;9599;53.706;10.384;2023-06-05T01:06:13;26.17;;;24.33;;
18933;SDS011;9599;53.706;10.384;2023-06-05T01:08:45;25.67;;;23.87;;
18933;SDS011;9599;53.706;10.384;2023-06-05T01:11:16;26.87;;;24.97;;
18933;SDS011;9599;53.706;10.384;2023-06-05T01:13:50;25.60;;;23.57;;
18933;SDS011;9599;53.706;10.384;2023-06-05T01:16:23;23.83;;;22.23;;
18933;SDS011;9599;53.706;10.384;2023-06-05T01:18:59;25.07;;;23.27;;
18933;SDS011;9599;53.706;10.384;2023-06-05T01:21:29;24.93;;;23.13;;
18933;SDS011;9599;53.706;10.384;2023-06-05T01:23:58;24.30;;;22.70;;
18933;SDS011;9599;53.706;10.384;2023-06-05T01:26:29;25.20;;;23.37;;
18933;SDS011;9599;53.706;10.384;2023-06-05T01:29:01;25.43;;;23.57;;
18933;SDS011;9599;53.706;10.384;2023-06-05T01:31:34;25.53;;;23.73;;
18933;SDS011;9599;53.706;10.384;2023-06-05T01:34:04;25.83;;;23.93;;
18933;SDS011;9599;53.706;10.384;2023-06-05T01:36:41;27.53;;;25.50;;
18933;SDS011;9599;53.706;10.384;2023-06-05T01:39:11;27.10;;;25.23;;
18933;SDS011;9599;53.706;10.384;2023-06-05T01:41:40;27.20;;;25.37;;
18933;SDS011;9599;53.706;10.384;2023-06-05T01:44:09;28.57;;;26.70;;
18933;SDS011;9599;53.706;10.384;2023-06-05T01:46:40;28.73;;;26.87;;
18933;SDS011;9599;53.706;10.384;2023-06-05T01:49:09;27.97;;;26.17;;
18933;SDS011;9599;53.706;10.384;2023-06-05T01:51:38;27.67;;;25.90;;
18933;SDS011;9599;53.706;10.384;2023-06-05T01:54:06;27.80;;;26.03;;
18933;SDS011;9599;53.706;10.384;2023-06-05T01:56:35;27.87;;;26.23;;
18933;SDS011;9599;53.706;10.384;2023-06-05T01:59:05;28.33;;;26.63;;
18933;SDS011;9599;53.706;10.384;2023-06-05T02:01:34;28.27;;;26.53;;
18933;SDS011;9599;53.706;10.384;2023-06-05T02:04:02;28.17;;;26.40;;
18933;SDS011;9599;53.706;10.384;2023-06-05T02:06:33;26.73;;;25.03;;
18933;SDS011;9599;53.706;10.384;2023-06-05T02:09:11;27.57;;;25.90;;
18933;SDS011;9599;53.706;10.384;2023-06-05T02:11:41;27.70;;;25.90;;
18933;SDS011;9599;53.706;10.384;2023-06-05T02:14:12;29.90;;;27.90;;
18933;SDS011;9599;53.706;10.384;2023-06-05T02:16:42;28.60;;;26.80;;
18933;SDS011;9599;53.706;10.384;2023-06-05T02:19:09;28.47;;;26.67;;
18933;SDS011;9599;53.706;10.384;2023-06-05T02:21:38;28.90;;;27.10;;
18933;SDS011;9599;53.706;10.384;2023-06-05T02:24:06;29.07;;;27.20;;
18933;SDS011;9599;53.706;10.384;2023-06-05T02:26:34;29.20;;;27.20;;
18933;SDS011;9599;53.706;10.384;2023-06-05T02:29:03;28.20;;;26.50;;
18933;SDS011;9599;53.706;10.384;2023-06-05T02:31:31;30.20;;;28.20;;
18933;SDS011;9599;53.706;10.384;2023-06-05T02:34:00;31.77;;;29.73;;
18933;SDS011;9599;53.706;10.384;2023-06-05T02:36:28;29.43;;;27.47;;
18933;SDS011;9599;53.706;10.384;2023-06-05T02:38:59;28.37;;;26.57;;
18933;SDS011;9599;53.706;10.384;2023-06-05T02:41:28;27.17;;;25.47;;
18933;SDS011;9599;53.706;10.384;2023-06-05T02:43:56;28.67;;;26.90;;
18933;SDS011;9599;53.706;10.384;2023-06-05T02:46:27;27.13;;;25.43;;
18933;SDS011;9599;53.706;10.384;2023-06-05T02:48:56;26.87;;;25.20;;
18933;SDS011;9599;53.706;10.384;2023-06-05T02:51:25;26.53;;;24.73;;
18933;SDS011;9599;53.706;10.384;2023-06-05T02:53:53;26.33;;;24.67;;
18933;SDS011;9599;53.706;10.384;2023-06-05T02:56:21;25.07;;;23.43;;
18933;SDS011;9599;53.706;10.384;2023-06-05T02:58:53;24.90;;;23.27;;
18933;SDS011;9599;53.706;10.384;2023-06-05T03:01:24;24.63;;;22.97;;
18933;SDS011;9599;53.706;10.384;2023-06-05T03:04:06;23.87;;;22.20;;
18933;SDS011;9599;53.706;10.384;2023-06-05T03:06:36;22.40;;;20.70;;
18933;SDS011;9599;53.706;10.384;2023-06-05T03:09:08;22.90;;;21.40;;
18933;SDS011;9599;53.706;10.384;2023-06-05T03:11:36;22.43;;;21.00;;
18933;SDS011;9599;53.706;10.384;2023-06-05T03:14:04;22.13;;;20.70;;
18933;SDS011;9599;53.706;10.384;2023-06-05T03:16:34;22.13;;;20.67;;
18933;SDS011;9599;53.706;10.384;2023-06-05T03:19:09;23.20;;;21.67;;
18933;SDS011;9599;53.706;10.384;2023-06-05T03:21:39;22.10;;;20.50;;
18933;SDS011;9599;53.706;10.384;2023-06-05T03:24:08;23.13;;;21.63;;
18933;SDS011;9599;53.706;10.384;2023-06-05T03:26:39;22.93;;;21.50;;
18933;SDS011;9599;53.706;10.384;2023-06-05T03:29:09;23.27;;;21.60;;
18933;SDS011;9599;53.706;10.384;2023-06-05T03:31:38;23.23;;;21.70;;
18933;SDS011;9599;53.706;10.384;2023-06-05T03:34:06;23.23;;;21.77;;
18933;SDS011;9599;53.706;10.384;2023-06-05T03:36:36;22.60;;;20.83;;
18933;SDS011;9599;53.706;10.384;2023-06-05T03:39:08;22.77;;;21.17;;
18933;SDS011;9599;53.706;10.384;2023-06-05T03:41:38;23.07;;;21.57;;
18933;SDS011;9599;53.706;10.384;2023-06-05T03:44:06;23.47;;;21.87;;
18933;SDS011;9599;53.706;10.384;2023-06-05T03:46:35;23.00;;;21.50;;
18933;SDS011;9599;53.706;10.384;2023-06-05T03:49:04;22.83;;;21.23;;
18933;SDS011;9599;53.706;10.384;2023-06-05T03:51:37;23.30;;;21.80;;
18933;SDS011;9599;53.706;10.384;2023-06-05T03:54:06;23.67;;;22.03;;
18933;SDS011;9599;53.706;10.384;2023-06-05T03:56:35;24.10;;;22.40;;
18933;SDS011;9599;53.706;10.384;2023-06-05T03:59:11;26.10;;;24.23;;
18933;SDS011;9599;53.706;10.384;2023-06-05T04:01:49;24.17;;;22.47;;
18933;SDS011;9599;53.706;10.384;2023-06-05T04:04:17;25.13;;;23.63;;
18933;SDS011;9599;53.706;10.384;2023-06-05T04:06:48;25.53;;;23.83;;
18933;SDS011;9599;53.706;10.384;2023-06-05T04:09:16;27.53;;;25.63;;
18933;SDS011;9599;53.706;10.384;2023-06-05T04:11:44;28.30;;;26.20;;
18933;SDS011;9599;53.706;10.384;2023-06-05T04:14:14;28.07;;;25.67;;
18933;SDS011;9599;53.706;10.384;2023-06-05T04:16:42;30.27;;;27.77;;
18933;SDS011;9599;53.706;10.384;2023-06-05T04:19:15;29.37;;;27.17;;
18933;SDS011;9599;53.706;10.384;2023-06-05T04:21:48;29.60;;;27.43;;
18933;SDS011;9599;53.706;10.384;2023-06-05T04:24:17;29.77;;;27.40;;
18933;SDS011;9599;53.706;10.384;2023-06-05T04:26:45;29.37;;;26.97;;
18933;SDS011;9599;53.706;10.384;2023-06-05T04:29:14;30.13;;;27.77;;
18933;SDS011;9599;53.706;10.384;2023-06-05T04:31:43;30.97;;;28.23;;
18933;SDS011;9599;53.706;10.384;2023-06-05T04:34:13;30.30;;;27.67;;
18933;SDS011;9599;53.706;10.384;2023-06-05T04:36:44;32.63;;;30.00;;
18933;SDS011;9599;53.706;10.384;2023-06-05T04:39:14;31.87;;;29.10;;
18933;SDS011;9599;53.706;10.384;2023-06-05T04:41:44;29.23;;;26.97;;
18933;SDS011;9599;53.706;10.384;2023-06-05T04:44:25;30.53;;;27.87;;
18933;SDS011;9599;53.706;10.384;2023-06-05T04:46:53;30.17;;;27.53;;
18933;SDS011;9599;53.706;10.384;2023-06-05T04:49:21;27.20;;;24.83;;
18933;SDS011;9599;53.706;10.384;2023-06-05T04:51:50;26.37;;;23.77;;
18933;SDS011;9599;53.706;10.384;2023-06-05T04:54:21;27.37;;;25.07;;
18933;SDS011;9599;53.706;10.384;2023-06-05T04:56:49;27.30;;;24.70;;
18933;SDS011;9599;53.706;10.384;2023-06-05T04:59:20;27.80;;;25.13;;
18933;SDS011;9599;53.706;10.384;2023-06-05T05:01:48;31.47;;;28.63;;
18933;SDS011;9599;53.706;10.384;2023-06-05T05:04:19;26.40;;;23.97;;
18933;SDS011;9599;53.706;10.384;2023-06-05T05:06:50;29.37;;;26.73;;
18933;SDS011;9599;53.706;10.384;2023-06-05T05:09:21;28.47;;;26.07;;
18933;SDS011;9599;53.706;10.384;2023-06-05T05:11:51;28.27;;;25.87;;
18933;SDS011;9599;53.706;10.384;2023-06-05T05:14:20;27.57;;;24.67;;
18933;SDS011;9599;53.706;10.384;2023-06-05T05:16:48;25.27;;;23.30;;
18933;SDS011;9599;53.706;10.384;2023-06-05T05:19:17;26.30;;;23.90;;
18933;SDS011;9599;53.706;10.384;2023-06-05T05:21:45;25.70;;;23.37;;
18933;SDS011;9599;53.706;10.384;2023-06-05T05:24:13;25.20;;;23.00;;
18933;SDS011;9599;53.706;10.384;2023-06-05T05:26:42;25.23;;;22.63;;
18933;SDS011;9599;53.706;10.384;2023-06-05T05:29:11;24.03;;;21.93;;
18933;SDS011;9599;53.706;10.384;2023-06-05T05:31:39;24.17;;;21.63;;
18933;SDS011;9599;53.706;10.384;2023-06-05T05:34:07;24.80;;;22.57;;
18933;SDS011;9599;53.706;10.384;2023-06-05T05:36:35;24.17;;;22.07;;
18933;SDS011;9599;53.706;10.384;2023-06-05T05:39:03;24.63;;;22.50;;
18933;SDS011;9599;53.706;10.384;2023-06-05T05:41:34;24.23;;;22.07;;
18933;SDS011;9599;53.706;10.384;2023-06-05T05:44:03;25.80;;;23.50;;
18933;SDS011;9599;53.706;10.384;2023-06-05T05:46:31;25.30;;;23.17;;
18933;SDS011;9599;53.706;10.384;2023-06-05T05:48:59;24.83;;;22.93;;
18933;SDS011;9599;53.706;10.384;2023-06-05T05:51:27;26.30;;;24.13;;
18933;SDS011;9599;53.706;10.384;2023-06-05T05:53:55;26.87;;;24.57;;
18933;SDS011;9599;53.706;10.384;2023-06-05T05:56:23;27.43;;;25.13;;
18933;SDS011;9599;53.706;10.384;2023-06-05T05:58:51;27.23;;;25.10;;
18933;SDS011;9599;53.706;10.384;2023-06-05T06:01:21;26.90;;;24.53;;
18933;SDS011;9599;53.706;10.384;2023-06-05T06:03:49;25.37;;;23.53;;
18933;SDS011;9599;53.706;10.384;2023-06-05T06:06:17;27.60;;;25.30;;
18933;SDS011;9599;53.706;10.384;2023-06-05T06:08:46;26.37;;;24.37;;
18933;SDS011;9599;53.706;10.384;2023-06-05T06:11:14;26.10;;;24.10;;
18933;SDS011;9599;53.706;10.384;2023-06-05T06:13:43;26.30;;;24.30;;
18933;SDS011;9599;53.706;10.384;2023-06-05T06:16:10;26.70;;;24.50;;
18933;SDS011;9599;53.706;10.384;2023-06-05T06:18:40;26.07;;;23.90;;
18933;SDS011;9599;53.706;10.384;2023-06-05T06:21:09;27.03;;;24.63;;
18933;SDS011;9599;53.706;10.384;2023-06-05T06:23:37;26.37;;;24.13;;
18933;SDS011;9599;53.706;10.384;2023-06-05T06:26:05;25.43;;;23.53;;
18933;SDS011;9599;53.706;10.384;2023-06-05T06:28:34;25.00;;;23.20;;
18933;SDS011;9599;53.706;10.384;2023-06-05T06:31:02;26.97;;;24.50;;
18933;SDS011;9599;53.706;10.384;2023-06-05T06:33:30;25.37;;;23.27;;
18933;SDS011;9599;53.706;10.384;2023-06-05T06:36:00;25.43;;;23.50;;
18933;SDS011;9599;53.706;10.384;2023-06-05T06:38:30;26.13;;;24.23;;
18933;SDS011;9599;53.706;10.384;2023-06-05T06:40:58;25.63;;;23.77;;
18933;SDS011;9599;53.706;10.384;2023-06-05T06:43:27;28.80;;;26.67;;
18933;SDS011;9599;53.706;10.384;2023-06-05T06:46:04;29.77;;;27.50;;
18933;SDS011;9599;53.706;10.384;2023-06-05T06:48:33;30.57;;;28.37;;
18933;SDS011;9599;53.706;10.384;2023-06-05T06:51:02;29.60;;;27.43;;
18933;SDS011;9599;53.706;10.384;2023-06-05T06:53:30;31.17;;;29.07;;
18933;SDS011;9599;53.706;10.384;2023-06-05T06:55:58;32.00;;;29.83;;
18933;SDS011;9599;53.706;10.384;2023-06-05T06:58:26;31.57;;;29.40;;
18933;SDS011;9599;53.706;10.384;2023-06-05T07:00:54;29.63;;;27.70;;
18933;SDS011;9599;53.706;10.384;2023-06-05T07:03:22;30.30;;;28.17;;
18933;SDS011;9599;53.706;10.384;2023-06-05T07:05:51;29.63;;;27.27;;
18933;SDS011;9599;53.706;10.384;2023-06-05T07:08:20;25.53;;;23.63;;
18933;SDS011;9599;53.706;10.384;2023-06-05T07:10:48;25.63;;;23.83;;
18933;SDS011;9599;53.706;10.384;2023-06-05T07:13:16;24.17;;;22.33;;
18933;SDS011;9599;53.706;10.384;2023-06-05T07:15:44;26.23;;;24.23;;
18933;SDS011;9599;53.706;10.384;2023-06-05T07:18:12;24.87;;;23.17;;
18933;SDS011;9599;53.706;10.384;2023-06-05T07:20:40;24.70;;;22.90;;
18933;SDS011;9599;53.706;10.384;2023-06-05T07:23:08;24.90;;;23.03;;
18933;SDS011;9599;53.706;10.384;2023-06-05T07:25:37;24.50;;;22.90;;
18933;SDS011;9599;53.706;10.384;2023-06-05T07:28:08;26.97;;;25.17;;
18933;SDS011;9599;53.706;10.384;2023-06-05T07:30:38;27.47;;;25.60;;
18933;SDS011;9599;53.706;10.384;2023-06-05T07:33:09;26.30;;;24.43;;
18933;SDS011;9599;53.706;10.384;2023-06-05T07:35:54;27.53;;;25.63;;
18933;SDS011;9599;53.706;10.384;2023-06-05T07:38:22;26.43;;;24.63;;
18933;SDS011;9599;53.706;10.384;2023-06-05T07:40:51;24.13;;;22.60;;
18933;SDS011;9599;53.706;10.384;2023-06-05T07:43:19;25.83;;;24.17;;
18933;SDS011;9599;53.706;10.384;2023-06-05T07:45:47;26.17;;;24.47;;
18933;SDS011;9599;53.706;10.384;2023-06-05T07:48:15;27.33;;;25.63;;
18933;SDS011;9599;53.706;10.384;2023-06-05T07:50:43;26.47;;;24.77;;
18933;SDS011;9599;53.706;10.384;2023-06-05T07:53:11;27.43;;;25.57;;
18933;SDS011;9599;53.706;10.384;2023-06-05T07:55:39;26.90;;;25.07;;
18933;SDS011;9599;53.706;10.384;2023-06-05T07:58:08;27.17;;;25.13;;
18933;SDS011;9599;53.706;10.384;2023-06-05T08:00:36;26.33;;;24.73;;
18933;SDS011;9599;53.706;10.384;2023-06-05T08:03:04;26.50;;;24.80;;
18933;SDS011;9599;53.706;10.384;2023-06-05T08:05:35;25.73;;;24.03;;
18933;SDS011;9599;53.706;10.384;2023-06-05T08:08:03;24.63;;;23.03;;
18933;SDS011;9599;53.706;10.384;2023-06-05T08:10:31;28.80;;;27.10;;
18933;SDS011;9599;53.706;10.384;2023-06-05T08:12:59;25.87;;;24.17;;
18933;SDS011;9599;53.706;10.384;2023-06-05T08:15:28;27.57;;;25.77;;
18933;SDS011;9599;53.706;10.384;2023-06-05T08:17:56;25.90;;;24.30;;
18933;SDS011;9599;53.706;10.384;2023-06-05T08:20:24;26.73;;;25.07;;
18933;SDS011;9599;53.706;10.384;2023-06-05T08:22:52;25.93;;;24.23;;
18933;SDS011;9599;53.706;10.384;2023-06-05T08:25:23;28.03;;;26.13;;
18933;SDS011;9599;53.706;10.384;2023-06-05T08:27:51;28.03;;;26.10;;
18933;SDS011;9599;53.706;10.384;2023-06-05T08:30:20;28.17;;;26.47;;
18933;SDS011;9599;53.706;10.384;2023-06-05T08:32:49;30.63;;;28.63;;
18933;SDS011;9599;53.706;10.384;2023-06-05T08:35:17;30.53;;;28.83;;
18933;SDS011;9599;53.706;10.384;2023-06-05T08:37:45;30.97;;;29.07;;
18933;SDS011;9599;53.706;10.384;2023-06-05T08:40:13;33.00;;;31.10;;
18933;SDS011;9599;53.706;10.384;2023-06-05T08:42:44;31.37;;;29.63;;
18933;SDS011;9599;53.706;10.384;2023-06-05T08:45:12;33.20;;;31.30;;
18933;SDS011;9599;53.706;10.384;2023-06-05T08:47:40;30.63;;;28.77;;
18933;SDS011;9599;53.706;10.384;2023-06-05T08:50:11;32.97;;;31.03;;
18933;SDS011;9599;53.706;10.384;2023-06-05T08:52:39;31.07;;;29.33;;
18933;SDS011;9599;53.706;10.384;2023-06-05T08:55:11;31.87;;;29.67;;
18933;SDS011;9599;53.706;10.384;2023-06-05T08:57:40;29.83;;;28.07;;
18933;SDS011;9599;53.706;10.384;2023-06-05T09:00:09;29.13;;;27.40;;
18933;SDS011;9599;53.706;10.384;2023-06-05T09:02:39;29.70;;;27.53;;
18933;SDS011;9599;53.706;10.384;2023-06-05T09:05:09;28.80;;;26.87;;
18933;SDS011;9599;53.706;10.384;2023-06-05T09:07:39;30.10;;;28.30;;
18933;SDS011;9599;53.706;10.384;2023-06-05T09:10:20;26.67;;;25.07;;
18933;SDS011;9599;53.706;10.384;2023-06-05T09:12:53;29.10;;;27.30;;
18933;SDS011;9599;53.706;10.384;2023-06-05T09:15:21;28.83;;;26.97;;
18933;SDS011;9599;53.706;10.384;2023-06-05T09:18:07;29.53;;;27.80;;
18933;SDS011;9599;53.706;10.384;2023-06-05T09:20:37;28.60;;;26.60;;
18933;SDS011;9599;53.706;10.384;2023-06-05T09:23:20;29.03;;;27.30;;
18933;SDS011;9599;53.706;10.384;2023-06-05T09:25:52;30.60;;;28.53;;
18933;SDS011;9599;53.706;10.384;2023-06-05T09:28:21;28.27;;;26.47;;
18933;SDS011;9599;53.706;10.384;2023-06-05T09:30:55;27.17;;;25.67;;
18933;SDS011;9599;53.706;10.384;2023-06-05T09:33:25;27.80;;;26.20;;
18933;SDS011;9599;53.706;10.384;2023-06-05T09:36:04;30.00;;;28.30;;
18933;SDS011;9599;53.706;10.384;2023-06-05T09:38:34;26.67;;;24.80;;
18933;SDS011;9599;53.706;10.384;2023-06-05T09:41:03;29.43;;;27.77;;
18933;SDS011;9599;53.706;10.384;2023-06-05T09:43:33;28.83;;;27.23;;
18933;SDS011;9599;53.706;10.384;2023-06-05T09:46:06;27.17;;;25.57;;
18933;SDS011;9599;53.706;10.384;2023-06-05T09:48:35;29.47;;;27.77;;
18933;SDS011;9599;53.706;10.384;2023-06-05T09:51:09;28.43;;;26.63;;
18933;SDS011;9599;53.706;10.384;2023-06-05T09:53:41;26.83;;;25.30;;
18933;SDS011;9599;53.706;10.384;2023-06-05T09:56:11;30.77;;;28.77;;
18933;SDS011;9599;53.706;10.384;2023-06-05T09:58:43;28.43;;;26.63;;
18933;SDS011;9599;53.706;10.384;2023-06-05T10:01:14;31.20;;;28.67;;
18933;SDS011;9599;53.706;10.384;2023-06-05T10:03:47;30.40;;;28.60;;
18933;SDS011;9599;53.706;10.384;2023-06-05T10:06:19;28.23;;;26.53;;
18933;SDS011;9599;53.706;10.384;2023-06-05T10:08:50;26.07;;;24.63;;
18933;SDS011;9599;53.706;10.384;2023-06-05T10:11:21;33.53;;;28.67;;
18933;SDS011;9599;53.706;10.384;2023-06-05T10:13:50;30.07;;;28.30;;
18933;SDS011;9599;53.706;10.384;2023-06-05T10:16:19;29.53;;;27.73;;
18933;SDS011;9599;53.706;10.384;2023-06-05T10:18:52;28.43;;;26.83;;
18933;SDS011;9599;53.706;10.384;2023-06-05T10:21:24;31.30;;;29.60;;
18933;SDS011;9599;53.706;10.384;2023-06-05T10:23:55;27.93;;;26.30;;
18933;SDS011;9599;53.706;10.384;2023-06-05T10:26:45;26.70;;;25.10;;
18933;SDS011;9599;53.706;10.384;2023-06-05T10:29:43;27.53;;;26.03;;
18933;SDS011;9599;53.706;10.384;2023-06-05T10:32:23;28.47;;;26.97;;
18933;SDS011;9599;53.706;10.384;2023-06-05T10:35:06;31.47;;;29.77;;
18933;SDS011;9599;53.706;10.384;2023-06-05T10:37:47;31.43;;;29.73;;
18933;SDS011;9599;53.706;10.384;2023-06-05T10:40:23;30.70;;;28.90;;
18933;SDS011;9599;53.706;10.384;2023-06-05T10:42:52;29.03;;;27.43;;
18933;SDS011;9599;53.706;10.384;2023-06-05T10:45:30;30.60;;;28.90;;
18933;SDS011;9599;53.706;10.384;2023-06-05T10:47:59;30.93;;;29.13;;
18933;SDS011;9599;53.706;10.384;2023-06-05T10:50:27;30.70;;;29.00;;
18933;SDS011;9599;53.706;10.384;2023-06-05T10:52:59;28.67;;;26.97;;
18933;SDS011;9599;53.706;10.384;2023-06-05T10:55:27;28.57;;;26.87;;
18933;SDS011;9599;53.706;10.384;2023-06-05T10:58:10;31.50;;;29.53;;
18933;SDS011;9599;53.706;10.384;2023-06-05T11:03:53;29.80;;;28.13;;
18933;SDS011;9599;53.706;10.384;2023-06-05T11:06:23;30.70;;;28.63;;
18933;SDS011;9599;53.706;10.384;2023-06-05T11:09:12;30.37;;;28.50;;
18933;SDS011;9599;53.706;10.384;2023-06-05T11:11:57;28.60;;;27.10;;
18933;SDS011;9599;53.706;10.384;2023-06-05T11:14:42;30.13;;;28.40;;
18933;SDS011;9599;53.706;10.384;2023-06-05T11:19:57;29.30;;;27.73;;
18933;SDS011;9599;53.706;10.384;2023-06-05T11:22:26;29.45;;;27.95;;
18933;SDS011;9599;53.706;10.384;2023-06-05T11:27:55;29.77;;;28.20;;
18933;SDS011;9599;53.706;10.384;2023-06-05T11:30:25;31.92;;;30.13;;
18933;SDS011;9599;53.706;10.384;2023-06-05T11:33:11;35.70;;;33.78;;
18933;SDS011;9599;53.706;10.384;2023-06-05T11:35:41;33.85;;;32.25;;
18933;SDS011;9599;53.706;10.384;2023-06-05T11:38:12;33.50;;;31.90;;
18933;SDS011;9599;53.706;10.384;2023-06-05T11:40:43;35.17;;;33.17;;
18933;SDS011;9599;53.706;10.384;2023-06-05T11:43:12;32.55;;;30.88;;
18933;SDS011;9599;53.706;10.384;2023-06-05T11:45:41;31.55;;;29.77;;
18933;SDS011;9599;53.706;10.384;2023-06-05T11:48:16;31.10;;;29.40;;
18933;SDS011;9599;53.706;10.384;2023-06-05T11:50:55;29.98;;;28.08;;
18933;SDS011;9599;53.706;10.384;2023-06-05T11:53:24;28.40;;;26.67;;
18933;SDS011;9599;53.706;10.384;2023-06-05T11:55:54;28.48;;;26.98;;
18933;SDS011;9599;53.706;10.384;2023-06-05T11:58:35;30.98;;;29.17;;
18933;SDS011;9599;53.706;10.384;2023-06-05T12:01:05;30.58;;;29.02;;
18933;SDS011;9599;53.706;10.384;2023-06-05T12:03:35;29.40;;;27.77;;
18933;SDS011;9599;53.706;10.384;2023-06-05T12:06:06;31.25;;;29.50;;
18933;SDS011;9599;53.706;10.384;2023-06-05T12:08:34;30.58;;;29.00;;
18933;SDS011;9599;53.706;10.384;2023-06-05T12:11:18;29.27;;;27.70;;
18933;SDS011;9599;53.706;10.384;2023-06-05T12:13:48;30.90;;;29.23;;
18933;SDS011;9599;53.706;10.384;2023-06-05T12:16:18;30.67;;;28.90;;
18933;SDS011;9599;53.706;10.384;2023-06-05T12:18:47;30.20;;;28.63;;
18933;SDS011;9599;53.706;10.384;2023-06-05T12:21:31;30.23;;;28.73;;
18933;SDS011;9599;53.706;10.384;2023-06-05T12:24:02;31.60;;;29.88;;
18933;SDS011;9599;53.706;10.384;2023-06-05T12:29:22;32.40;;;30.60;;
18933;SDS011;9599;53.706;10.384;2023-06-05T12:31:51;30.73;;;28.95;;
18933;SDS011;9599;53.706;10.384;2023-06-05T12:37:25;29.90;;;28.15;;
18933;SDS011;9599;53.706;10.384;2023-06-05T12:39:55;27.95;;;26.48;;
18933;SDS011;9599;53.706;10.384;2023-06-05T12:42:26;30.38;;;28.77;;
18933;SDS011;9599;53.706;10.384;2023-06-05T12:44:54;30.65;;;28.58;;
18933;SDS011;9599;53.706;10.384;2023-06-05T12:47:22;29.95;;;28.38;;
18933;SDS011;9599;53.706;10.384;2023-06-05T12:49:50;28.67;;;27.27;;
18933;SDS011;9599;53.706;10.384;2023-06-05T12:52:18;30.40;;;28.85;;
18933;SDS011;9599;53.706;10.384;2023-06-05T12:54:52;30.13;;;28.60;;
18933;SDS011;9599;53.706;10.384;2023-06-05T12:57:20;28.23;;;26.73;;
18933;SDS011;9599;53.706;10.384;2023-06-05T12:59:49;29.83;;;28.33;;
18933;SDS011;9599;53.706;10.384;2023-06-05T13:02:19;30.57;;;28.93;;
18933;SDS011;9599;53.706;10.384;2023-06-05T13:04:47;28.60;;;26.83;;
18933;SDS011;9599;53.706;10.384;2023-06-05T13:07:15;25.80;;;24.10;;
18933;SDS011;9599;53.706;10.384;2023-06-05T13:09:44;27.63;;;25.97;;
18933;SDS011;9599;53.706;10.384;2023-06-05T13:12:12;27.70;;;26.27;;
18933;SDS011;9599;53.706;10.384;2023-06-05T13:14:40;27.40;;;25.90;;
18933;SDS011;9599;53.706;10.384;2023-06-05T13:17:09;29.07;;;27.47;;
18933;SDS011;9599;53.706;10.384;2023-06-05T13:19:37;29.23;;;27.83;;
18933;SDS011;9599;53.706;10.384;2023-06-05T13:22:05;29.20;;;27.60;;
18933;SDS011;9599;53.706;10.384;2023-06-05T13:24:33;28.23;;;26.73;;
18933;SDS011;9599;53.706;10.384;2023-06-05T13:27:01;29.70;;;27.67;;
18933;SDS011;9599;53.706;10.384;2023-06-05T13:29:30;29.90;;;28.40;;
18933;SDS011;9599;53.706;10.384;2023-06-05T13:31:57;29.05;;;27.45;;
18933;SDS011;9599;53.706;10.384;2023-06-05T13:34:27;30.00;;;28.43;;
18933;SDS011;9599;53.706;10.384;2023-06-05T13:36:56;29.48;;;27.98;;
18933;SDS011;9599;53.706;10.384;2023-06-05T13:39:35;30.57;;;28.87;;
18933;SDS011;9599;53.706;10.384;2023-06-05T13:42:03;31.23;;;29.63;;
18933;SDS011;9599;53.706;10.384;2023-06-05T13:44:32;31.00;;;29.30;;
18933;SDS011;9599;53.706;10.384;2023-06-05T13:47:00;30.42;;;28.83;;
18933;SDS011;9599;53.706;10.384;2023-06-05T13:49:31;27.58;;;26.10;;
18933;SDS011;9599;53.706;10.384;2023-06-05T13:51:58;29.10;;;27.60;;
18933;SDS011;9599;53.706;10.384;2023-06-05T13:54:26;29.75;;;28.25;;
18933;SDS011;9599;53.706;10.384;2023-06-05T13:56:54;29.30;;;27.77;;
18933;SDS011;9599;53.706;10.384;2023-06-05T13:59:22;28.47;;;26.93;;
18933;SDS011;9599;53.706;10.384;2023-06-05T14:01:50;26.42;;;24.92;;
18933;SDS011;9599;53.706;10.384;2023-06-05T14:04:18;28.13;;;26.73;;
18933;SDS011;9599;53.706;10.384;2023-06-05T14:06:48;29.03;;;27.50;;
18933;SDS011;9599;53.706;10.384;2023-06-05T14:09:16;28.87;;;27.23;;
18933;SDS011;9599;53.706;10.384;2023-06-05T14:11:45;28.15;;;26.67;;
18933;SDS011;9599;53.706;10.384;2023-06-05T14:14:13;30.13;;;28.52;;
18933;SDS011;9599;53.706;10.384;2023-06-05T14:16:41;27.23;;;25.73;;
18933;SDS011;9599;53.706;10.384;2023-06-05T14:19:09;30.13;;;28.53;;
18933;SDS011;9599;53.706;10.384;2023-06-05T14:21:37;30.27;;;28.77;;
18933;SDS011;9599;53.706;10.384;2023-06-05T14:24:08;29.70;;;28.20;;
18933;SDS011;9599;53.706;10.384;2023-06-05T14:26:36;32.30;;;30.67;;
18933;SDS011;9599;53.706;10.384;2023-06-05T14:29:04;29.98;;;28.38;;
18933;SDS011;9599;53.706;10.384;2023-06-05T14:31:32;30.85;;;29.25;;
18933;SDS011;9599;53.706;10.384;2023-06-05T14:34:00;30.07;;;28.47;;
18933;SDS011;9599;53.706;10.384;2023-06-05T14:36:29;30.95;;;29.30;;
18933;SDS011;9599;53.706;10.384;2023-06-05T14:38:57;27.03;;;25.53;;
18933;SDS011;9599;53.706;10.384;2023-06-05T14:41:27;31.17;;;29.58;;
18933;SDS011;9599;53.706;10.384;2023-06-05T14:43:56;30.07;;;28.17;;
18933;SDS011;9599;53.706;10.384;2023-06-05T14:46:44;28.50;;;26.90;;
18933;SDS011;9599;53.706;10.384;2023-06-05T14:49:13;29.90;;;28.30;;
18933;SDS011;9599;53.706;10.384;2023-06-05T14:51:41;30.20;;;28.60;;
18933;SDS011;9599;53.706;10.384;2023-06-05T14:54:09;29.55;;;27.98;;